sensor_id;sensor_type;location;lat;lon;timestamp;P1;durP1;ratioP1;P2;durP2;ratioP2
61356;SDS011;47227;46.752;23.576;2022-10-13T00:01:14;12.60;;;8.00;;
61356;SDS011;47227;46.752;23.576;2022-10-13T00:03:44;12.40;;;8.90;;
61356;SDS011;47227;46.752;23.576;2022-10-13T00:06:21;10.70;;;8.50;;
61356;SDS011;47227;46.752;23.576;2022-10-13T00:08:51;11.80;;;9.20;;
61356;SDS011;47227;46.752;23.576;2022-10-13T00:11:23;10.60;;;8.90;;
61356;SDS011;47227;46.752;23.576;2022-10-13T00:13:55;12.70;;;8.80;;
61356;SDS011;47227;46.752;23.576;2022-10-13T00:16:24;12.70;;;9.40;;
61356;SDS011;47227;46.752;23.576;2022-10-13T00:18:53;12.10;;;9.30;;
61356;SDS011;47227;46.752;23.576;2022-10-13T00:21:22;12.50;;;9.20;;
61356;SDS011;47227;46.752;23.576;2022-10-13T00:23:52;15.10;;;10.30;;
61356;SDS011;47227;46.752;23.576;2022-10-13T00:26:22;12.80;;;9.50;;
61356;SDS011;47227;46.752;23.576;2022-10-13T00:28:52;15.40;;;10.10;;
61356;SDS011;47227;46.752;23.576;2022-10-13T00:31:24;21.50;;;10.50;;
61356;SDS011;47227;46.752;23.576;2022-10-13T00:33:54;13.80;;;9.50;;
61356;SDS011;47227;46.752;23.576;2022-10-13T00:36:22;17.90;;;9.60;;
61356;SDS011;47227;46.752;23.576;2022-10-13T00:38:51;16.80;;;9.60;;
61356;SDS011;47227;46.752;23.576;2022-10-13T00:41:20;16.90;;;10.20;;
61356;SDS011;47227;46.752;23.576;2022-10-13T00:43:54;13.30;;;9.90;;
61356;SDS011;47227;46.752;23.576;2022-10-13T00:46:25;16.00;;;9.40;;
61356;SDS011;47227;46.752;23.576;2022-10-13T00:48:57;12.70;;;8.90;;
61356;SDS011;47227;46.752;23.576;2022-10-13T00:51:29;13.40;;;9.30;;
61356;SDS011;47227;46.752;23.576;2022-10-13T00:53:59;14.50;;;8.90;;
61356;SDS011;47227;46.752;23.576;2022-10-13T00:56:28;15.80;;;9.70;;
61356;SDS011;47227;46.752;23.576;2022-10-13T00:58:56;15.70;;;10.00;;
61356;SDS011;47227;46.752;23.576;2022-10-13T01:01:26;13.70;;;9.70;;
61356;SDS011;47227;46.752;23.576;2022-10-13T01:03:54;16.60;;;10.70;;
61356;SDS011;47227;46.752;23.576;2022-10-13T01:06:21;18.80;;;11.00;;
61356;SDS011;47227;46.752;23.576;2022-10-13T01:08:50;14.30;;;11.20;;
61356;SDS011;47227;46.752;23.576;2022-10-13T01:11:22;17.60;;;11.00;;
61356;SDS011;47227;46.752;23.576;2022-10-13T01:17:03;16.80;;;11.10;;
61356;SDS011;47227;46.752;23.576;2022-10-13T01:22:31;15.10;;;10.70;;
61356;SDS011;47227;46.752;23.576;2022-10-13T01:25:20;14.90;;;10.60;;
61356;SDS011;47227;46.752;23.576;2022-10-13T01:28:21;19.30;;;10.90;;
61356;SDS011;47227;46.752;23.576;2022-10-13T01:31:03;14.50;;;10.70;;
61356;SDS011;47227;46.752;23.576;2022-10-13T01:33:47;14.20;;;10.40;;
61356;SDS011;47227;46.752;23.576;2022-10-13T01:36:31;15.90;;;9.50;;
61356;SDS011;47227;46.752;23.576;2022-10-13T01:39:22;19.10;;;9.80;;
61356;SDS011;47227;46.752;23.576;2022-10-13T01:42:06;14.10;;;9.40;;
61356;SDS011;47227;46.752;23.576;2022-10-13T01:44:40;10.20;;;8.50;;
61356;SDS011;47227;46.752;23.576;2022-10-13T01:47:13;15.40;;;8.90;;
61356;SDS011;47227;46.752;23.576;2022-10-13T01:49:44;11.80;;;8.60;;
61356;SDS011;47227;46.752;23.576;2022-10-13T01:52:14;13.50;;;9.10;;
61356;SDS011;47227;46.752;23.576;2022-10-13T01:54:49;14.00;;;8.20;;
61356;SDS011;47227;46.752;23.576;2022-10-13T02:00:03;14.60;;;8.30;;
61356;SDS011;47227;46.752;23.576;2022-10-13T02:02:53;12.80;;;8.50;;
61356;SDS011;47227;46.752;23.576;2022-10-13T02:05:37;11.50;;;8.90;;
61356;SDS011;47227;46.752;23.576;2022-10-13T02:08:22;12.50;;;9.50;;
61356;SDS011;47227;46.752;23.576;2022-10-13T02:10:59;18.40;;;9.70;;
61356;SDS011;47227;46.752;23.576;2022-10-13T02:13:40;13.40;;;9.90;;
61356;SDS011;47227;46.752;23.576;2022-10-13T02:16:20;16.80;;;10.70;;
61356;SDS011;47227;46.752;23.576;2022-10-13T02:18:50;18.70;;;9.50;;
61356;SDS011;47227;46.752;23.576;2022-10-13T02:21:18;14.60;;;10.00;;
61356;SDS011;47227;46.752;23.576;2022-10-13T02:23:45;12.90;;;9.90;;
61356;SDS011;47227;46.752;23.576;2022-10-13T02:26:13;16.60;;;10.70;;
61356;SDS011;47227;46.752;23.576;2022-10-13T02:28:41;16.40;;;9.90;;
61356;SDS011;47227;46.752;23.576;2022-10-13T02:31:09;18.70;;;10.00;;
61356;SDS011;47227;46.752;23.576;2022-10-13T02:33:36;15.00;;;10.70;;
61356;SDS011;47227;46.752;23.576;2022-10-13T02:36:04;15.00;;;9.70;;
61356;SDS011;47227;46.752;23.576;2022-10-13T02:38:32;13.90;;;9.50;;
61356;SDS011;47227;46.752;23.576;2022-10-13T02:41:00;17.50;;;9.60;;
61356;SDS011;47227;46.752;23.576;2022-10-13T02:43:29;13.00;;;9.00;;
61356;SDS011;47227;46.752;23.576;2022-10-13T02:45:56;14.60;;;9.40;;
61356;SDS011;47227;46.752;23.576;2022-10-13T02:48:24;11.70;;;8.10;;
61356;SDS011;47227;46.752;23.576;2022-10-13T02:50:52;16.00;;;8.30;;
61356;SDS011;47227;46.752;23.576;2022-10-13T02:53:20;12.20;;;8.10;;
61356;SDS011;47227;46.752;23.576;2022-10-13T02:55:48;10.90;;;8.00;;
61356;SDS011;47227;46.752;23.576;2022-10-13T02:58:15;16.10;;;8.30;;
61356;SDS011;47227;46.752;23.576;2022-10-13T03:00:43;12.70;;;8.60;;
61356;SDS011;47227;46.752;23.576;2022-10-13T03:03:11;12.00;;;8.70;;
61356;SDS011;47227;46.752;23.576;2022-10-13T03:05:40;13.60;;;10.20;;
61356;SDS011;47227;46.752;23.576;2022-10-13T03:08:07;14.80;;;10.50;;
61356;SDS011;47227;46.752;23.576;2022-10-13T03:10:35;15.50;;;10.60;;
61356;SDS011;47227;46.752;23.576;2022-10-13T03:13:03;16.70;;;11.30;;
61356;SDS011;47227;46.752;23.576;2022-10-13T03:15:30;13.30;;;10.40;;
61356;SDS011;47227;46.752;23.576;2022-10-13T03:17:58;15.20;;;11.90;;
61356;SDS011;47227;46.752;23.576;2022-10-13T03:20:26;15.70;;;11.40;;
61356;SDS011;47227;46.752;23.576;2022-10-13T03:22:56;16.00;;;11.90;;
61356;SDS011;47227;46.752;23.576;2022-10-13T03:25:24;16.20;;;10.70;;
61356;SDS011;47227;46.752;23.576;2022-10-13T03:27:53;19.70;;;11.90;;
61356;SDS011;47227;46.752;23.576;2022-10-13T03:30:21;20.20;;;10.70;;
61356;SDS011;47227;46.752;23.576;2022-10-13T03:32:49;14.30;;;10.10;;
61356;SDS011;47227;46.752;23.576;2022-10-13T03:35:17;12.20;;;9.20;;
61356;SDS011;47227;46.752;23.576;2022-10-13T03:37:45;12.70;;;8.70;;
61356;SDS011;47227;46.752;23.576;2022-10-13T03:40:12;9.60;;;7.60;;
61356;SDS011;47227;46.752;23.576;2022-10-13T03:42:40;8.20;;;6.60;;
61356;SDS011;47227;46.752;23.576;2022-10-13T03:45:08;8.30;;;6.00;;
61356;SDS011;47227;46.752;23.576;2022-10-13T03:47:37;8.70;;;5.50;;
61356;SDS011;47227;46.752;23.576;2022-10-13T03:50:05;8.60;;;5.90;;
61356;SDS011;47227;46.752;23.576;2022-10-13T03:52:33;6.20;;;5.30;;
61356;SDS011;47227;46.752;23.576;2022-10-13T03:55:00;8.60;;;5.30;;
61356;SDS011;47227;46.752;23.576;2022-10-13T03:57:28;6.00;;;5.30;;
61356;SDS011;47227;46.752;23.576;2022-10-13T03:59:57;5.90;;;4.80;;
61356;SDS011;47227;46.752;23.576;2022-10-13T04:02:26;6.50;;;5.30;;
61356;SDS011;47227;46.752;23.576;2022-10-13T04:04:54;6.20;;;5.40;;
61356;SDS011;47227;46.752;23.576;2022-10-13T04:07:21;9.10;;;6.80;;
61356;SDS011;47227;46.752;23.576;2022-10-13T04:09:49;8.80;;;6.10;;
61356;SDS011;47227;46.752;23.576;2022-10-13T04:12:17;13.50;;;6.80;;
61356;SDS011;47227;46.752;23.576;2022-10-13T04:14:47;11.20;;;6.80;;
61356;SDS011;47227;46.752;23.576;2022-10-13T04:17:15;16.90;;;9.30;;
61356;SDS011;47227;46.752;23.576;2022-10-13T04:19:42;19.00;;;10.30;;
61356;SDS011;47227;46.752;23.576;2022-10-13T04:22:10;16.60;;;12.10;;
61356;SDS011;47227;46.752;23.576;2022-10-13T04:24:40;20.30;;;11.60;;
61356;SDS011;47227;46.752;23.576;2022-10-13T04:27:08;18.00;;;11.90;;
61356;SDS011;47227;46.752;23.576;2022-10-13T04:29:36;18.40;;;11.90;;
61356;SDS011;47227;46.752;23.576;2022-10-13T04:32:04;19.20;;;11.70;;
61356;SDS011;47227;46.752;23.576;2022-10-13T04:34:31;19.60;;;12.40;;
61356;SDS011;47227;46.752;23.576;2022-10-13T04:36:59;18.90;;;11.40;;
61356;SDS011;47227;46.752;23.576;2022-10-13T04:39:27;19.90;;;11.80;;
61356;SDS011;47227;46.752;23.576;2022-10-13T04:41:55;15.20;;;10.80;;
61356;SDS011;47227;46.752;23.576;2022-10-13T04:44:23;16.60;;;10.30;;
61356;SDS011;47227;46.752;23.576;2022-10-13T04:46:51;14.00;;;10.80;;
61356;SDS011;47227;46.752;23.576;2022-10-13T04:49:18;18.40;;;9.60;;
61356;SDS011;47227;46.752;23.576;2022-10-13T04:51:46;14.30;;;9.50;;
61356;SDS011;47227;46.752;23.576;2022-10-13T04:54:14;18.40;;;9.80;;
61356;SDS011;47227;46.752;23.576;2022-10-13T04:56:43;15.50;;;10.20;;
61356;SDS011;47227;46.752;23.576;2022-10-13T04:59:12;16.60;;;9.30;;
61356;SDS011;47227;46.752;23.576;2022-10-13T05:01:40;13.00;;;9.10;;
61356;SDS011;47227;46.752;23.576;2022-10-13T05:04:12;13.60;;;10.30;;
61356;SDS011;47227;46.752;23.576;2022-10-13T05:06:40;13.60;;;9.40;;
61356;SDS011;47227;46.752;23.576;2022-10-13T05:09:28;13.60;;;9.40;;
61356;SDS011;47227;46.752;23.576;2022-10-13T05:12:07;13.90;;;9.20;;
61356;SDS011;47227;46.752;23.576;2022-10-13T05:14:35;12.70;;;9.20;;
61356;SDS011;47227;46.752;23.576;2022-10-13T05:17:07;13.70;;;9.60;;
61356;SDS011;47227;46.752;23.576;2022-10-13T05:19:35;13.80;;;9.70;;
61356;SDS011;47227;46.752;23.576;2022-10-13T05:22:02;11.90;;;9.70;;
61356;SDS011;47227;46.752;23.576;2022-10-13T05:24:30;13.70;;;10.70;;
61356;SDS011;47227;46.752;23.576;2022-10-13T05:27:04;13.70;;;10.10;;
61356;SDS011;47227;46.752;23.576;2022-10-13T05:29:35;17.20;;;10.70;;
61356;SDS011;47227;46.752;23.576;2022-10-13T05:32:06;16.60;;;11.20;;
61356;SDS011;47227;46.752;23.576;2022-10-13T05:34:34;14.80;;;11.30;;
61356;SDS011;47227;46.752;23.576;2022-10-13T05:37:02;15.10;;;11.20;;
61356;SDS011;47227;46.752;23.576;2022-10-13T05:39:32;17.00;;;12.00;;
61356;SDS011;47227;46.752;23.576;2022-10-13T05:42:00;14.20;;;11.20;;
61356;SDS011;47227;46.752;23.576;2022-10-13T05:44:28;17.00;;;11.80;;
61356;SDS011;47227;46.752;23.576;2022-10-13T05:46:56;20.90;;;12.50;;
61356;SDS011;47227;46.752;23.576;2022-10-13T05:49:24;15.20;;;10.20;;
61356;SDS011;47227;46.752;23.576;2022-10-13T05:51:52;14.20;;;10.50;;
61356;SDS011;47227;46.752;23.576;2022-10-13T05:54:25;12.60;;;9.70;;
61356;SDS011;47227;46.752;23.576;2022-10-13T05:57:00;12.70;;;8.10;;
61356;SDS011;47227;46.752;23.576;2022-10-13T05:59:39;12.60;;;9.70;;
61356;SDS011;47227;46.752;23.576;2022-10-13T06:04:45;15.90;;;10.50;;
61356;SDS011;47227;46.752;23.576;2022-10-13T06:07:17;16.90;;;9.90;;
61356;SDS011;47227;46.752;23.576;2022-10-13T06:09:45;14.00;;;9.70;;
61356;SDS011;47227;46.752;23.576;2022-10-13T06:12:13;10.50;;;9.00;;
61356;SDS011;47227;46.752;23.576;2022-10-13T06:14:42;11.00;;;8.30;;
61356;SDS011;47227;46.752;23.576;2022-10-13T06:17:12;13.20;;;9.40;;
61356;SDS011;47227;46.752;23.576;2022-10-13T06:19:45;13.10;;;9.90;;
61356;SDS011;47227;46.752;23.576;2022-10-13T06:22:20;12.50;;;10.10;;
61356;SDS011;47227;46.752;23.576;2022-10-13T06:24:50;14.50;;;9.40;;
61356;SDS011;47227;46.752;23.576;2022-10-13T06:27:31;16.30;;;10.40;;
61356;SDS011;47227;46.752;23.576;2022-10-13T06:30:01;13.60;;;9.40;;
61356;SDS011;47227;46.752;23.576;2022-10-13T06:32:30;13.40;;;9.00;;
61356;SDS011;47227;46.752;23.576;2022-10-13T06:34:59;10.40;;;8.30;;
61356;SDS011;47227;46.752;23.576;2022-10-13T06:38:35;12.10;;;9.80;;
61356;SDS011;47227;46.752;23.576;2022-10-13T06:41:11;15.00;;;10.10;;
61356;SDS011;47227;46.752;23.576;2022-10-13T06:46:43;18.10;;;10.80;;
61356;SDS011;47227;46.752;23.576;2022-10-13T06:49:31;15.40;;;10.90;;
61356;SDS011;47227;46.752;23.576;2022-10-13T06:52:14;15.70;;;11.40;;
61356;SDS011;47227;46.752;23.576;2022-10-13T06:54:49;12.70;;;9.30;;
61356;SDS011;47227;46.752;23.576;2022-10-13T06:57:31;14.90;;;10.50;;
61356;SDS011;47227;46.752;23.576;2022-10-13T07:04:29;9.20;;;7.60;;
61356;SDS011;47227;46.752;23.576;2022-10-13T07:07:51;13.80;;;8.10;;
61356;SDS011;47227;46.752;23.576;2022-10-13T07:11:05;8.90;;;6.40;;
61356;SDS011;47227;46.752;23.576;2022-10-13T07:13:54;14.20;;;7.00;;
61356;SDS011;47227;46.752;23.576;2022-10-13T07:16:37;11.80;;;7.70;;
61356;SDS011;47227;46.752;23.576;2022-10-13T07:19:05;11.50;;;8.40;;
61356;SDS011;47227;46.752;23.576;2022-10-13T07:22:09;12.30;;;8.20;;
61356;SDS011;47227;46.752;23.576;2022-10-13T07:24:46;12.90;;;8.40;;
61356;SDS011;47227;46.752;23.576;2022-10-13T07:27:35;18.20;;;10.10;;
61356;SDS011;47227;46.752;23.576;2022-10-13T07:30:07;13.80;;;10.30;;
61356;SDS011;47227;46.752;23.576;2022-10-13T07:32:50;15.20;;;9.40;;
61356;SDS011;47227;46.752;23.576;2022-10-13T07:35:18;16.60;;;10.10;;
61356;SDS011;47227;46.752;23.576;2022-10-13T07:37:57;16.60;;;10.60;;
61356;SDS011;47227;46.752;23.576;2022-10-13T07:40:28;14.40;;;10.50;;
61356;SDS011;47227;46.752;23.576;2022-10-13T07:43:16;15.30;;;10.30;;
61356;SDS011;47227;46.752;23.576;2022-10-13T07:45:56;15.30;;;11.40;;
61356;SDS011;47227;46.752;23.576;2022-10-13T07:52:17;17.40;;;11.20;;
61356;SDS011;47227;46.752;23.576;2022-10-13T07:54:54;19.80;;;12.60;;
61356;SDS011;47227;46.752;23.576;2022-10-13T07:57:32;22.20;;;12.60;;
61356;SDS011;47227;46.752;23.576;2022-10-13T08:00:27;17.70;;;12.40;;
61356;SDS011;47227;46.752;23.576;2022-10-13T08:02:55;16.10;;;11.90;;
61356;SDS011;47227;46.752;23.576;2022-10-13T08:05:27;16.40;;;10.70;;
61356;SDS011;47227;46.752;23.576;2022-10-13T08:08:09;17.80;;;10.20;;
61356;SDS011;47227;46.752;23.576;2022-10-13T08:10:42;14.40;;;10.30;;
61356;SDS011;47227;46.752;23.576;2022-10-13T08:13:13;22.70;;;11.30;;
61356;SDS011;47227;46.752;23.576;2022-10-13T08:15:52;14.70;;;11.00;;
61356;SDS011;47227;46.752;23.576;2022-10-13T08:18:28;17.60;;;11.40;;
61356;SDS011;47227;46.752;23.576;2022-10-13T08:20:58;19.60;;;11.50;;
61356;SDS011;47227;46.752;23.576;2022-10-13T08:23:50;17.20;;;11.30;;
61356;SDS011;47227;46.752;23.576;2022-10-13T08:26:20;17.80;;;10.80;;
61356;SDS011;47227;46.752;23.576;2022-10-13T08:29:24;23.40;;;12.20;;
61356;SDS011;47227;46.752;23.576;2022-10-13T08:31:56;27.50;;;15.40;;
61356;SDS011;47227;46.752;23.576;2022-10-13T08:34:31;30.70;;;16.50;;
61356;SDS011;47227;46.752;23.576;2022-10-13T08:37:24;28.70;;;16.00;;
61356;SDS011;47227;46.752;23.576;2022-10-13T08:39:54;35.60;;;18.40;;
61356;SDS011;47227;46.752;23.576;2022-10-13T08:44:58;29.90;;;18.30;;
61356;SDS011;47227;46.752;23.576;2022-10-13T08:47:57;28.00;;;16.90;;
61356;SDS011;47227;46.752;23.576;2022-10-13T08:50:34;29.00;;;17.10;;
61356;SDS011;47227;46.752;23.576;2022-10-13T08:53:19;29.00;;;18.20;;
61356;SDS011;47227;46.752;23.576;2022-10-13T08:56:11;32.10;;;19.20;;
61356;SDS011;47227;46.752;23.576;2022-10-13T08:58:58;32.80;;;20.10;;
61356;SDS011;47227;46.752;23.576;2022-10-13T09:01:31;33.20;;;21.80;;
61356;SDS011;47227;46.752;23.576;2022-10-13T09:04:15;36.80;;;23.20;;
61356;SDS011;47227;46.752;23.576;2022-10-13T09:07:01;42.40;;;23.50;;
61356;SDS011;47227;46.752;23.576;2022-10-13T11:10:41;11.90;;;10.30;;
61356;SDS011;47227;46.752;23.576;2022-10-13T11:13:15;12.60;;;9.90;;
61356;SDS011;47227;46.752;23.576;2022-10-13T11:15:44;15.20;;;11.00;;
61356;SDS011;47227;46.752;23.576;2022-10-13T11:18:51;17.30;;;11.40;;
61356;SDS011;47227;46.752;23.576;2022-10-13T11:21:48;16.10;;;11.90;;
61356;SDS011;47227;46.752;23.576;2022-10-13T11:27:37;19.40;;;12.20;;
61356;SDS011;47227;46.752;23.576;2022-10-13T11:30:40;22.00;;;13.00;;
61356;SDS011;47227;46.752;23.576;2022-10-13T11:42:06;19.80;;;13.90;;
61356;SDS011;47227;46.752;23.576;2022-10-13T11:44:53;17.80;;;12.70;;
61356;SDS011;47227;46.752;23.576;2022-10-13T11:50:41;21.20;;;14.40;;
61356;SDS011;47227;46.752;23.576;2022-10-13T11:53:27;17.40;;;13.30;;
61356;SDS011;47227;46.752;23.576;2022-10-13T11:56:22;25.00;;;12.90;;
61356;SDS011;47227;46.752;23.576;2022-10-13T11:59:03;26.80;;;13.70;;
61356;SDS011;47227;46.752;23.576;2022-10-13T12:01:34;16.40;;;12.10;;
61356;SDS011;47227;46.752;23.576;2022-10-13T12:04:11;18.80;;;12.40;;
61356;SDS011;47227;46.752;23.576;2022-10-13T12:06:44;19.70;;;13.30;;
61356;SDS011;47227;46.752;23.576;2022-10-13T12:09:30;15.10;;;12.00;;
61356;SDS011;47227;46.752;23.576;2022-10-13T12:12:10;18.40;;;12.60;;
61356;SDS011;47227;46.752;23.576;2022-10-13T12:14:54;19.60;;;12.30;;
61356;SDS011;47227;46.752;23.576;2022-10-13T12:17:31;21.70;;;12.70;;
61356;SDS011;47227;46.752;23.576;2022-10-13T12:22:52;17.00;;;12.10;;
61356;SDS011;47227;46.752;23.576;2022-10-13T12:25:22;15.50;;;11.50;;
61356;SDS011;47227;46.752;23.576;2022-10-13T12:28:00;16.00;;;11.80;;
61356;SDS011;47227;46.752;23.576;2022-10-13T12:30:34;14.70;;;11.20;;
61356;SDS011;47227;46.752;23.576;2022-10-13T12:35:52;17.80;;;11.60;;
61356;SDS011;47227;46.752;23.576;2022-10-13T12:38:21;15.20;;;11.10;;
61356;SDS011;47227;46.752;23.576;2022-10-13T12:40:51;13.10;;;10.30;;
61356;SDS011;47227;46.752;23.576;2022-10-13T12:43:24;17.20;;;10.90;;
61356;SDS011;47227;46.752;23.576;2022-10-13T12:45:56;22.00;;;11.30;;
61356;SDS011;47227;46.752;23.576;2022-10-13T12:48:36;14.50;;;10.80;;
61356;SDS011;47227;46.752;23.576;2022-10-13T12:51:10;10.70;;;9.70;;
61356;SDS011;47227;46.752;23.576;2022-10-13T12:53:52;15.90;;;10.80;;
61356;SDS011;47227;46.752;23.576;2022-10-13T12:56:27;13.30;;;10.50;;
61356;SDS011;47227;46.752;23.576;2022-10-13T12:58:58;18.30;;;10.20;;
61356;SDS011;47227;46.752;23.576;2022-10-13T13:01:32;10.70;;;9.60;;
61356;SDS011;47227;46.752;23.576;2022-10-13T13:04:38;13.00;;;10.40;;
61356;SDS011;47227;46.752;23.576;2022-10-13T13:07:36;11.30;;;9.80;;
61356;SDS011;47227;46.752;23.576;2022-10-13T13:10:16;11.00;;;8.50;;
61356;SDS011;47227;46.752;23.576;2022-10-13T13:13:12;24.50;;;10.60;;
61356;SDS011;47227;46.752;23.576;2022-10-13T13:15:43;12.70;;;8.80;;
61356;SDS011;47227;46.752;23.576;2022-10-13T13:21:09;12.70;;;9.70;;
61356;SDS011;47227;46.752;23.576;2022-10-13T13:23:42;13.60;;;9.40;;
61356;SDS011;47227;46.752;23.576;2022-10-13T13:26:22;15.50;;;9.40;;
61356;SDS011;47227;46.752;23.576;2022-10-13T13:28:53;9.70;;;8.70;;
61356;SDS011;47227;46.752;23.576;2022-10-13T13:31:26;16.90;;;10.00;;
61356;SDS011;47227;46.752;23.576;2022-10-13T13:33:58;13.50;;;9.50;;
61356;SDS011;47227;46.752;23.576;2022-10-13T13:36:28;12.10;;;9.00;;
61356;SDS011;47227;46.752;23.576;2022-10-13T13:38:57;15.10;;;9.20;;
61356;SDS011;47227;46.752;23.576;2022-10-13T13:41:25;14.90;;;9.70;;
61356;SDS011;47227;46.752;23.576;2022-10-13T13:44:00;16.10;;;9.60;;
61356;SDS011;47227;46.752;23.576;2022-10-13T13:46:29;18.00;;;10.50;;
61356;SDS011;47227;46.752;23.576;2022-10-13T13:49:00;12.00;;;9.20;;
61356;SDS011;47227;46.752;23.576;2022-10-13T13:51:29;11.60;;;9.30;;
61356;SDS011;47227;46.752;23.576;2022-10-13T13:53:58;15.80;;;9.70;;
61356;SDS011;47227;46.752;23.576;2022-10-13T13:56:34;11.40;;;9.00;;
61356;SDS011;47227;46.752;23.576;2022-10-13T13:59:02;14.20;;;9.50;;
61356;SDS011;47227;46.752;23.576;2022-10-13T14:01:32;14.70;;;8.80;;
61356;SDS011;47227;46.752;23.576;2022-10-13T14:04:21;10.80;;;8.80;;
61356;SDS011;47227;46.752;23.576;2022-10-13T14:07:00;15.10;;;8.90;;
61356;SDS011;47227;46.752;23.576;2022-10-13T14:09:30;20.30;;;9.20;;
61356;SDS011;47227;46.752;23.576;2022-10-13T14:12:01;12.20;;;9.40;;
61356;SDS011;47227;46.752;23.576;2022-10-13T14:14:30;13.50;;;9.00;;
61356;SDS011;47227;46.752;23.576;2022-10-13T14:16:59;14.30;;;9.20;;
61356;SDS011;47227;46.752;23.576;2022-10-13T14:19:31;11.00;;;9.60;;
61356;SDS011;47227;46.752;23.576;2022-10-13T14:21:59;17.30;;;10.90;;
61356;SDS011;47227;46.752;23.576;2022-10-13T14:24:35;12.30;;;9.80;;
61356;SDS011;47227;46.752;23.576;2022-10-13T14:27:04;13.80;;;9.50;;
61356;SDS011;47227;46.752;23.576;2022-10-13T14:29:31;10.00;;;8.90;;
61356;SDS011;47227;46.752;23.576;2022-10-13T14:31:59;15.20;;;9.80;;
61356;SDS011;47227;46.752;23.576;2022-10-13T14:34:27;15.70;;;9.70;;
61356;SDS011;47227;46.752;23.576;2022-10-13T14:36:54;10.60;;;8.80;;
61356;SDS011;47227;46.752;23.576;2022-10-13T14:39:22;18.60;;;9.00;;
61356;SDS011;47227;46.752;23.576;2022-10-13T14:41:51;13.70;;;8.90;;
61356;SDS011;47227;46.752;23.576;2022-10-13T14:44:19;11.40;;;8.30;;
61356;SDS011;47227;46.752;23.576;2022-10-13T14:46:48;10.70;;;8.10;;
61356;SDS011;47227;46.752;23.576;2022-10-13T14:49:16;10.70;;;7.80;;
61356;SDS011;47227;46.752;23.576;2022-10-13T14:51:45;10.70;;;8.80;;
61356;SDS011;47227;46.752;23.576;2022-10-13T14:54:13;12.80;;;8.20;;
61356;SDS011;47227;46.752;23.576;2022-10-13T14:56:42;10.90;;;8.60;;
61356;SDS011;47227;46.752;23.576;2022-10-13T14:59:15;14.40;;;9.10;;
61356;SDS011;47227;46.752;23.576;2022-10-13T15:01:44;11.60;;;9.00;;
61356;SDS011;47227;46.752;23.576;2022-10-13T15:04:13;15.10;;;8.90;;
61356;SDS011;47227;46.752;23.576;2022-10-13T15:06:42;9.10;;;7.50;;
61356;SDS011;47227;46.752;23.576;2022-10-13T15:09:10;12.30;;;8.70;;
61356;SDS011;47227;46.752;23.576;2022-10-13T15:11:39;14.80;;;8.20;;
61356;SDS011;47227;46.752;23.576;2022-10-13T15:14:07;15.20;;;7.80;;
61356;SDS011;47227;46.752;23.576;2022-10-13T15:16:36;13.70;;;8.80;;
61356;SDS011;47227;46.752;23.576;2022-10-13T15:19:04;10.20;;;8.40;;
61356;SDS011;47227;46.752;23.576;2022-10-13T15:21:32;11.30;;;8.70;;
61356;SDS011;47227;46.752;23.576;2022-10-13T15:24:00;11.50;;;8.50;;
61356;SDS011;47227;46.752;23.576;2022-10-13T15:26:28;14.60;;;8.90;;
61356;SDS011;47227;46.752;23.576;2022-10-13T15:28:55;12.60;;;9.40;;
61356;SDS011;47227;46.752;23.576;2022-10-13T15:31:23;12.60;;;9.30;;
61356;SDS011;47227;46.752;23.576;2022-10-13T15:33:51;11.60;;;9.00;;
61356;SDS011;47227;46.752;23.576;2022-10-13T15:36:21;16.60;;;8.80;;
61356;SDS011;47227;46.752;23.576;2022-10-13T15:38:50;16.30;;;10.10;;
61356;SDS011;47227;46.752;23.576;2022-10-13T15:41:18;13.10;;;10.40;;
61356;SDS011;47227;46.752;23.576;2022-10-13T15:43:48;17.60;;;12.10;;
61356;SDS011;47227;46.752;23.576;2022-10-13T15:46:15;13.10;;;10.50;;
61356;SDS011;47227;46.752;23.576;2022-10-13T15:48:49;14.00;;;10.00;;
61356;SDS011;47227;46.752;23.576;2022-10-13T15:51:18;16.70;;;9.60;;
61356;SDS011;47227;46.752;23.576;2022-10-13T15:53:48;14.70;;;9.50;;
61356;SDS011;47227;46.752;23.576;2022-10-13T15:56:16;15.20;;;9.60;;
61356;SDS011;47227;46.752;23.576;2022-10-13T15:58:44;14.10;;;9.90;;
61356;SDS011;47227;46.752;23.576;2022-10-13T16:01:12;16.40;;;9.60;;
61356;SDS011;47227;46.752;23.576;2022-10-13T16:03:40;14.00;;;10.10;;
61356;SDS011;47227;46.752;23.576;2022-10-13T16:06:09;12.40;;;8.30;;
61356;SDS011;47227;46.752;23.576;2022-10-13T16:08:38;18.70;;;9.10;;
61356;SDS011;47227;46.752;23.576;2022-10-13T16:11:09;13.50;;;9.20;;
61356;SDS011;47227;46.752;23.576;2022-10-13T16:13:39;14.50;;;8.90;;
61356;SDS011;47227;46.752;23.576;2022-10-13T16:16:07;17.20;;;9.80;;
61356;SDS011;47227;46.752;23.576;2022-10-13T16:18:36;16.00;;;10.10;;
61356;SDS011;47227;46.752;23.576;2022-10-13T16:21:06;12.70;;;9.70;;
61356;SDS011;47227;46.752;23.576;2022-10-13T16:23:45;20.50;;;10.60;;
61356;SDS011;47227;46.752;23.576;2022-10-13T16:26:14;15.30;;;10.50;;
61356;SDS011;47227;46.752;23.576;2022-10-13T16:28:44;19.80;;;10.40;;
61356;SDS011;47227;46.752;23.576;2022-10-13T16:31:13;16.60;;;9.60;;
61356;SDS011;47227;46.752;23.576;2022-10-13T16:33:43;14.00;;;10.60;;
61356;SDS011;47227;46.752;23.576;2022-10-13T16:36:13;16.70;;;11.80;;
61356;SDS011;47227;46.752;23.576;2022-10-13T16:38:43;16.50;;;11.60;;
61356;SDS011;47227;46.752;23.576;2022-10-13T16:41:13;18.10;;;11.30;;
61356;SDS011;47227;46.752;23.576;2022-10-13T16:43:43;16.30;;;11.00;;
61356;SDS011;47227;46.752;23.576;2022-10-13T16:46:13;18.00;;;11.70;;
61356;SDS011;47227;46.752;23.576;2022-10-13T16:48:43;19.00;;;12.00;;
61356;SDS011;47227;46.752;23.576;2022-10-13T16:51:12;19.50;;;12.40;;
61356;SDS011;47227;46.752;23.576;2022-10-13T16:53:45;19.00;;;12.60;;
61356;SDS011;47227;46.752;23.576;2022-10-13T16:56:15;19.40;;;11.70;;
61356;SDS011;47227;46.752;23.576;2022-10-13T16:58:48;19.40;;;12.10;;
61356;SDS011;47227;46.752;23.576;2022-10-13T17:01:19;21.50;;;13.50;;
61356;SDS011;47227;46.752;23.576;2022-10-13T17:03:47;19.70;;;12.30;;
61356;SDS011;47227;46.752;23.576;2022-10-13T17:06:17;17.20;;;11.70;;
61356;SDS011;47227;46.752;23.576;2022-10-13T17:08:54;20.40;;;12.70;;
61356;SDS011;47227;46.752;23.576;2022-10-13T17:11:25;18.80;;;12.40;;
61356;SDS011;47227;46.752;23.576;2022-10-13T17:13:55;16.20;;;10.50;;
61356;SDS011;47227;46.752;23.576;2022-10-13T17:16:23;22.70;;;12.30;;
61356;SDS011;47227;46.752;23.576;2022-10-13T17:18:52;19.90;;;11.80;;
61356;SDS011;47227;46.752;23.576;2022-10-13T17:21:20;23.00;;;10.80;;
61356;SDS011;47227;46.752;23.576;2022-10-13T17:23:49;17.50;;;10.50;;
61356;SDS011;47227;46.752;23.576;2022-10-13T17:26:17;27.80;;;11.10;;
61356;SDS011;47227;46.752;23.576;2022-10-13T17:28:45;17.20;;;11.40;;
61356;SDS011;47227;46.752;23.576;2022-10-13T17:31:14;21.20;;;11.50;;
61356;SDS011;47227;46.752;23.576;2022-10-13T17:33:44;16.00;;;10.50;;
61356;SDS011;47227;46.752;23.576;2022-10-13T17:36:15;27.30;;;11.90;;
61356;SDS011;47227;46.752;23.576;2022-10-13T17:38:47;19.90;;;11.50;;
61356;SDS011;47227;46.752;23.576;2022-10-13T17:41:15;26.00;;;13.30;;